Time;durP1;ratioP1;P1;durP2;ratioP2;P2;SDS_P1;SDS_P2;PMS_P1;PMS_P2;Temp;Humidity;BMP_temperature;BMP_pressure;BME280_temperature;BME280_humidity;BME280_pressure;Samples;Min_cycle;Max_cycle;Signal;HPM_P1;HPM_P2
2023/04/17 00:00:13;;;;;;;20.98;13.93;;;8.60;99.90;;;;;;4995423;28;20386;-63
2023/04/17 00:02:39;;;;;;;23.25;14.30;;;8.60;99.90;;;;;;4990415;28;20430;-62
2023/04/17 00:05:09;;;;;;;24.83;15.15;;;8.60;99.90;;;;;;4989966;28;20078;-63
2023/04/17 00:07:40;;;;;;;22.20;14.18;;;8.60;99.90;;;;;;4990527;28;20354;-63
2023/04/17 00:10:08;;;;;;;24.77;15.15;;;8.60;99.90;;;;;;5003371;28;20164;-61
2023/04/17 00:12:35;;;;;;;23.65;15.88;;;8.50;99.90;;;;;;5010063;28;20089;-64
2023/04/17 00:15:02;;;;;;;22.98;14.48;;;8.50;99.90;;;;;;4991961;28;20439;-63
2023/04/17 00:17:28;;;;;;;23.50;15.07;;;8.50;99.90;;;;;;5010151;28;20081;-63
2023/04/17 00:20:00;;;;;;;22.88;14.65;;;8.60;99.90;;;;;;4998054;28;20051;-62
2023/04/17 00:22:33;;;;;;;22.42;15.60;;;8.60;99.90;;;;;;4990557;28;20064;-64
2023/04/17 00:25:00;;;;;;;20.85;13.13;;;8.60;99.90;;;;;;4989846;28;20046;-63
2023/04/17 00:27:27;;;;;;;24.25;14.32;;;8.50;99.90;;;;;;4990211;28;20101;-63
2023/04/17 00:29:53;;;;;;;20.85;14.07;;;8.50;99.90;;;;;;5001648;28;20108;-65
2023/04/17 00:32:21;;;;;;;19.75;14.90;;;8.50;99.90;;;;;;5010840;28;20528;-65
2023/04/17 00:34:49;;;;;;;22.55;14.77;;;8.60;99.90;;;;;;5013065;28;20085;-62
2023/04/17 00:37:15;;;;;;;21.60;13.45;;;8.50;99.90;;;;;;5013216;28;20089;-63
2023/04/17 00:39:43;;;;;;;23.13;14.60;;;8.50;99.90;;;;;;5002963;28;20545;-63
2023/04/17 00:42:09;;;;;;;23.02;14.43;;;8.60;99.90;;;;;;4993799;28;20042;-62
2023/04/17 00:44:35;;;;;;;23.15;15.68;;;8.60;99.90;;;;;;4993319;28;20210;-63
2023/04/17 00:47:02;;;;;;;22.17;14.55;;;8.60;99.90;;;;;;4994069;28;20046;-63
2023/04/17 00:49:29;;;;;;;24.38;15.35;;;8.50;99.90;;;;;;5001441;28;20053;-63
2023/04/17 00:51:58;;;;;;;20.80;14.45;;;8.50;99.90;;;;;;5013418;28;20092;-62
2023/04/17 00:54:25;;;;;;;23.85;14.75;;;8.50;99.90;;;;;;5012737;28;20049;-65
2023/04/17 00:56:53;;;;;;;21.98;13.73;;;8.50;99.90;;;;;;4995891;28;20345;-63
2023/04/17 00:59:21;;;;;;;24.75;15.43;;;8.50;99.90;;;;;;5006289;28;20105;-64
2023/04/17 01:01:48;;;;;;;19.60;14.43;;;8.50;99.90;;;;;;4992224;28;20086;-63
2023/04/17 01:04:14;;;;;;;21.98;14.95;;;8.50;99.90;;;;;;4993373;28;20046;-63
2023/04/17 01:06:41;;;;;;;23.70;15.60;;;8.50;99.90;;;;;;4992973;28;20061;-64
2023/04/17 01:09:07;;;;;;;22.15;16.02;;;8.50;99.90;;;;;;4997716;28;20436;-63
2023/04/17 01:11:35;;;;;;;21.98;14.02;;;8.40;99.90;;;;;;5003578;28;20078;-64
2023/04/17 01:14:02;;;;;;;22.17;14.48;;;8.50;99.90;;;;;;4993178;28;20057;-62
2023/04/17 01:16:29;;;;;;;23.05;15.15;;;8.50;99.90;;;;;;4992518;28;20054;-62
2023/04/17 01:18:55;;;;;;;24.23;14.73;;;8.40;99.90;;;;;;4996178;28;20092;-65
2023/04/17 01:21:22;;;;;;;21.98;14.10;;;8.40;99.90;;;;;;5012667;28;20129;-65
2023/04/17 01:23:51;;;;;;;21.45;15.20;;;8.40;99.90;;;;;;4995167;28;20129;-65
2023/04/17 01:26:29;;;;;;;24.33;15.55;;;8.30;99.90;;;;;;5012503;28;20061;-63
2023/04/17 01:28:57;;;;;;;24.73;14.93;;;8.30;99.90;;;;;;5009160;28;20382;-65
2023/04/17 01:31:31;;;;;;;23.85;16.17;;;8.40;99.90;;;;;;4993192;28;20109;-63
2023/04/17 01:33:59;;;;;;;24.92;16.83;;;8.30;99.90;;;;;;4975894;28;20054;-63
2023/04/17 01:36:26;;;;;;;24.25;17.27;;;8.40;99.90;;;;;;4975180;28;20057;-63
2023/04/17 01:38:52;;;;;;;23.20;15.85;;;8.30;99.90;;;;;;4995007;28;20074;-63
2023/04/17 01:41:19;;;;;;;24.52;16.27;;;8.30;99.90;;;;;;5012730;28;20131;-63
2023/04/17 01:43:46;;;;;;;23.02;15.60;;;8.30;99.90;;;;;;5011823;28;20060;-64
2023/04/17 01:46:19;;;;;;;25.08;16.23;;;8.30;99.90;;;;;;4994295;28;20049;-63
2023/04/17 01:48:46;;;;;;;25.85;15.73;;;8.40;99.90;;;;;;4992779;28;20135;-63
2023/04/17 01:51:12;;;;;;;26.27;15.75;;;8.40;99.90;;;;;;4992589;28;20046;-62
2023/04/17 01:53:39;;;;;;;25.75;16.52;;;8.40;99.90;;;;;;4992913;28;20131;-63
2023/04/17 01:56:06;;;;;;;25.70;15.50;;;8.30;99.90;;;;;;4991873;28;20490;-63
2023/04/17 01:58:32;;;;;;;28.63;17.08;;;8.40;99.90;;;;;;4992439;28;20133;-65
2023/04/17 02:00:59;;;;;;;29.15;16.20;;;8.40;99.90;;;;;;5010952;28;20081;-64
2023/04/17 02:03:25;;;;;;;26.20;17.05;;;8.30;99.90;;;;;;5012645;28;20113;-63
2023/04/17 02:05:52;;;;;;;27.30;17.10;;;8.40;99.90;;;;;;5011250;28;20382;-64
2023/04/17 02:08:19;;;;;;;28.00;18.30;;;8.30;99.90;;;;;;4994449;28;20053;-63
2023/04/17 02:10:45;;;;;;;30.95;17.83;;;8.40;99.90;;;;;;4993854;28;20062;-64
2023/04/17 02:13:11;;;;;;;28.75;18.88;;;8.40;99.90;;;;;;4992203;28;20141;-64
2023/04/17 02:15:38;;;;;;;28.90;17.55;;;8.30;99.90;;;;;;4991501;28;20078;-63
2023/04/17 02:18:05;;;;;;;28.05;16.58;;;8.30;99.90;;;;;;4991862;28;20050;-63
2023/04/17 02:20:32;;;;;;;30.02;18.27;;;8.30;99.90;;;;;;5007028;28;20046;-63
2023/04/17 02:22:59;;;;;;;31.15;17.70;;;8.30;99.90;;;;;;5012040;28;20054;-63
2023/04/17 02:25:26;;;;;;;30.40;17.50;;;8.40;99.90;;;;;;4993996;28;20054;-63
2023/04/17 02:27:53;;;;;;;28.98;17.42;;;8.30;99.90;;;;;;5011620;28;20045;-63
2023/04/17 02:30:19;;;;;;;32.47;18.25;;;8.30;99.90;;;;;;4997331;28;20130;-63
2023/04/17 02:32:45;;;;;;;28.75;17.70;;;8.30;99.90;;;;;;4992017;28;20134;-63
2023/04/17 02:35:13;;;;;;;29.25;18.15;;;8.20;99.90;;;;;;4991510;28;20181;-62
2023/04/17 02:37:40;;;;;;;29.92;19.35;;;8.30;99.90;;;;;;4974044;28;20458;-64
2023/04/17 02:40:08;;;;;;;29.45;17.73;;;8.20;99.90;;;;;;5003545;28;20092;-61
2023/04/17 02:42:35;;;;;;;32.05;18.63;;;8.30;99.90;;;;;;4993854;28;20105;-63
2023/04/17 02:45:03;;;;;;;32.63;19.10;;;8.30;99.90;;;;;;5002760;28;20109;-62
2023/04/17 02:47:29;;;;;;;26.58;18.02;;;8.20;99.90;;;;;;4990389;28;20057;-62
2023/04/17 02:49:56;;;;;;;29.88;17.80;;;8.30;99.90;;;;;;4992466;28;20122;-63
2023/04/17 02:52:24;;;;;;;31.42;17.38;;;8.30;99.90;;;;;;4990775;28;20382;-62
2023/04/17 02:54:50;;;;;;;28.33;18.70;;;8.30;99.90;;;;;;4990491;28;20084;-62
2023/04/17 02:57:16;;;;;;;29.90;18.48;;;8.20;99.90;;;;;;4990494;28;20410;-62
2023/04/17 02:59:44;;;;;;;31.42;17.52;;;8.30;99.90;;;;;;4992494;28;20054;-62
2023/04/17 03:02:13;;;;;;;32.03;19.27;;;8.40;99.90;;;;;;4989481;28;20141;-61
2023/04/17 03:04:40;;;;;;;30.77;18.27;;;8.30;99.90;;;;;;4988287;28;20356;-62
2023/04/17 03:07:08;;;;;;;29.60;17.40;;;8.20;99.90;;;;;;4990948;28;20085;-61
2023/04/17 03:09:37;;;;;;;33.83;18.80;;;8.20;99.90;;;;;;4975083;28;20383;-63
2023/04/17 03:12:04;;;;;;;32.70;19.05;;;8.30;99.90;;;;;;4990932;28;20142;-62
2023/04/17 03:14:31;;;;;;;26.33;16.10;;;8.30;99.90;;;;;;4990653;28;20434;-63
2023/04/17 03:16:57;;;;;;;30.10;18.38;;;8.30;99.90;;;;;;4990686;28;20073;-62
2023/04/17 03:19:24;;;;;;;31.20;19.58;;;8.30;99.90;;;;;;4996704;28;20137;-62
2023/04/17 03:21:51;;;;;;;31.23;19.00;;;8.20;99.90;;;;;;4993015;28;20045;-63
2023/04/17 03:24:17;;;;;;;30.65;18.23;;;8.30;99.90;;;;;;5010106;28;20046;-61
2023/04/17 03:26:49;;;;;;;31.33;17.15;;;8.30;99.90;;;;;;5010550;28;20140;-64
2023/04/17 03:29:19;;;;;;;32.13;18.40;;;8.30;99.90;;;;;;5005295;28;20097;-64
2023/04/17 03:31:45;;;;;;;33.40;17.55;;;8.40;99.90;;;;;;4990860;28;20058;-64
2023/04/17 03:34:12;;;;;;;31.80;19.15;;;8.30;99.90;;;;;;4972841;28;20153;-64
2023/04/17 03:36:38;;;;;;;31.10;19.58;;;8.40;99.90;;;;;;4990693;28;20436;-63
2023/04/17 03:39:04;;;;;;;31.55;19.50;;;8.40;99.90;;;;;;4993725;28;20129;-62
2023/04/17 03:41:31;;;;;;;31.35;19.08;;;8.40;99.90;;;;;;5010340;28;20141;-63
2023/04/17 03:43:57;;;;;;;32.50;20.08;;;8.40;99.90;;;;;;5010676;28;20073;-64
2023/04/17 03:46:26;;;;;;;35.97;21.25;;;8.40;99.90;;;;;;4992730;28;20322;-63
2023/04/17 03:48:52;;;;;;;33.38;20.42;;;8.40;99.90;;;;;;5008715;28;20092;-63
2023/04/17 03:51:19;;;;;;;33.20;20.17;;;8.40;99.90;;;;;;4990661;28;20077;-63
2023/04/17 03:53:46;;;;;;;31.17;19.33;;;8.40;99.90;;;;;;4990612;28;20050;-64
2023/04/17 03:56:12;;;;;;;35.05;21.02;;;8.20;99.90;;;;;;4990187;28;20062;-63
2023/04/17 03:58:38;;;;;;;32.08;19.58;;;8.40;99.90;;;;;;4990527;28;20125;-64
2023/04/17 04:01:09;;;;;;;31.52;19.45;;;8.40;99.90;;;;;;5009737;28;20088;-63
2023/04/17 04:03:36;;;;;;;34.03;20.10;;;8.40;99.90;;;;;;5010209;28;20086;-64
2023/04/17 04:06:03;;;;;;;29.60;18.38;;;8.30;99.90;;;;;;5009650;28;20056;-64
2023/04/17 04:08:29;;;;;;;32.83;18.58;;;8.40;99.90;;;;;;5013197;28;20053;-63
2023/04/17 04:10:55;;;;;;;31.17;18.67;;;8.40;99.90;;;;;;4995554;28;20089;-66
2023/04/17 04:13:21;;;;;;;36.95;19.65;;;8.30;99.90;;;;;;4994642;28;20093;-64
2023/04/17 04:15:48;;;;;;;31.67;18.98;;;8.30;99.90;;;;;;4993995;28;20074;-63
2023/04/17 04:18:16;;;;;;;37.90;19.30;;;8.40;99.90;;;;;;4994348;28;20125;-63
2023/04/17 04:20:42;;;;;;;33.22;19.45;;;8.30;99.90;;;;;;5010006;28;20065;-64
2023/04/17 04:23:09;;;;;;;35.72;19.45;;;8.30;99.90;;;;;;4996231;28;20042;-63
2023/04/17 04:25:35;;;;;;;32.00;19.90;;;8.30;99.90;;;;;;5013543;28;20398;-63
2023/04/17 04:28:01;;;;;;;36.75;19.27;;;8.40;99.90;;;;;;5013943;28;20108;-63
2023/04/17 04:30:34;;;;;;;33.40;19.45;;;8.40;99.90;;;;;;4999023;28;20166;-64
2023/04/17 04:33:01;;;;;;;35.17;20.63;;;8.30;99.90;;;;;;4994235;28;20125;-64
2023/04/17 04:35:29;;;;;;;34.08;18.30;;;8.30;99.90;;;;;;4993522;28;20088;-65
2023/04/17 04:38:00;;;;;;;34.17;21.20;;;8.30;99.90;;;;;;4976437;28;20066;-65
2023/04/17 04:40:34;;;;;;;39.65;21.70;;;8.40;99.90;;;;;;5007419;28;20368;-63
2023/04/17 04:43:01;;;;;;;36.15;21.08;;;8.30;99.90;;;;;;5013450;28;20084;-63
2023/04/17 04:45:27;;;;;;;34.72;21.08;;;8.30;99.90;;;;;;5013237;28;20081;-63
2023/04/17 04:47:54;;;;;;;34.08;21.77;;;8.30;99.90;;;;;;5013625;28;20261;-63
2023/04/17 04:50:20;;;;;;;37.40;20.05;;;8.20;99.90;;;;;;4999997;28;20050;-64
2023/04/17 04:52:47;;;;;;;32.25;19.40;;;8.20;99.90;;;;;;4976223;28;20066;-63
2023/04/17 04:55:13;;;;;;;31.90;18.85;;;8.30;99.90;;;;;;4992744;28;20054;-64
2023/04/17 04:57:39;;;;;;;33.40;19.75;;;8.20;99.90;;;;;;4974263;28;20047;-62
2023/04/17 05:00:08;;;;;;;33.10;19.35;;;8.20;99.90;;;;;;4989392;28;20077;-63
2023/04/17 05:02:35;;;;;;;35.40;19.92;;;8.30;99.90;;;;;;4993078;28;20047;-63
2023/04/17 05:05:03;;;;;;;35.35;21.60;;;8.20;99.90;;;;;;4992766;28;20046;-64
2023/04/17 05:07:30;;;;;;;34.75;20.30;;;8.30;99.90;;;;;;4974964;28;20113;-64
2023/04/17 05:09:56;;;;;;;35.72;19.92;;;8.20;99.90;;;;;;4976247;28;20511;-64
2023/04/17 05:12:22;;;;;;;38.85;20.85;;;8.20;99.90;;;;;;4992828;28;20050;-64
2023/04/17 05:14:48;;;;;;;37.58;21.45;;;8.30;99.90;;;;;;4992216;28;20050;-63
2023/04/17 05:17:14;;;;;;;34.63;20.55;;;8.30;99.90;;;;;;4960395;28;20078;-63
2023/04/17 05:19:41;;;;;;;33.25;17.63;;;8.20;99.90;;;;;;4999571;28;20045;-63
2023/04/17 05:22:07;;;;;;;32.78;18.85;;;8.30;99.90;;;;;;4995541;28;20073;-64
2023/04/17 05:24:33;;;;;;;33.15;18.75;;;8.20;99.90;;;;;;5012428;28;20321;-63
2023/04/17 05:27:00;;;;;;;36.78;20.52;;;8.20;99.90;;;;;;4995293;28;20109;-62
2023/04/17 05:29:33;;;;;;;31.20;19.50;;;8.20;99.90;;;;;;4973812;28;20109;-63
2023/04/17 05:31:59;;;;;;;35.90;20.25;;;8.20;99.90;;;;;;4976370;28;20050;-64
2023/04/17 05:34:31;;;;;;;35.10;20.50;;;8.20;99.90;;;;;;4992265;28;20522;-65
2023/04/17 05:36:57;;;;;;;29.48;18.00;;;8.10;99.90;;;;;;4992895;28;20081;-62
2023/04/17 05:39:23;;;;;;;32.78;20.63;;;8.20;99.90;;;;;;4997267;28;20050;-63
2023/04/17 05:41:50;;;;;;;33.13;20.73;;;8.20;99.90;;;;;;5012222;28;20418;-64
2023/04/17 05:44:16;;;;;;;32.50;19.10;;;8.20;99.90;;;;;;5012098;28;20093;-64
2023/04/17 05:46:43;;;;;;;30.33;19.67;;;8.10;99.90;;;;;;4993610;28;20072;-65
2023/04/17 05:49:09;;;;;;;32.80;20.23;;;8.20;99.90;;;;;;4995355;28;20050;-63
2023/04/17 05:51:35;;;;;;;33.53;19.98;;;8.10;99.90;;;;;;5012164;28;20430;-63
2023/04/17 05:54:02;;;;;;;33.95;21.00;;;8.10;99.90;;;;;;5011686;28;20081;-64
2023/04/17 05:56:28;;;;;;;33.28;21.98;;;8.10;99.90;;;;;;4995322;28;20057;-63
2023/04/17 05:58:54;;;;;;;27.88;19.15;;;8.20;99.90;;;;;;5010353;28;20074;-63
2023/04/17 06:01:21;;;;;;;31.77;20.60;;;8.20;99.90;;;;;;4993375;28;20081;-63
2023/04/17 06:03:49;;;;;;;33.03;19.13;;;8.20;99.90;;;;;;4975674;28;20057;-62
2023/04/17 06:06:15;;;;;;;30.08;18.33;;;8.20;99.90;;;;;;4993591;28;20417;-63
2023/04/17 06:08:42;;;;;;;32.13;20.40;;;8.20;99.90;;;;;;5010483;28;20053;-63
2023/04/17 06:11:08;;;;;;;30.08;19.17;;;8.20;99.90;;;;;;4992640;28;20066;-63
2023/04/17 06:13:34;;;;;;;30.60;18.90;;;8.20;99.90;;;;;;4974804;28;20137;-63
2023/04/17 06:16:01;;;;;;;31.60;20.45;;;8.10;99.90;;;;;;4990955;28;20050;-63
2023/04/17 06:18:27;;;;;;;31.75;18.70;;;8.00;99.90;;;;;;5003792;28;20097;-63
2023/04/17 06:20:53;;;;;;;31.73;19.63;;;8.10;99.90;;;;;;4995312;28;20184;-64
2023/04/17 06:23:20;;;;;;;34.20;20.58;;;8.00;99.90;;;;;;4959357;28;20062;-65
2023/04/17 06:25:48;;;;;;;30.50;18.55;;;8.10;99.90;;;;;;4991163;28;20094;-64
2023/04/17 06:28:14;;;;;;;29.38;18.02;;;8.10;99.90;;;;;;4991445;28;20482;-64
2023/04/17 06:30:40;;;;;;;31.52;19.20;;;8.30;99.90;;;;;;5006496;28;20057;-64
2023/04/17 06:33:10;;;;;;;27.63;16.42;;;8.30;99.90;;;;;;4993833;28;20078;-63
2023/04/17 06:35:36;;;;;;;29.92;19.70;;;8.30;99.90;;;;;;5011204;28;20086;-64
2023/04/17 06:38:03;;;;;;;30.38;18.33;;;8.30;99.90;;;;;;4993355;28;20050;-65
2023/04/17 06:40:30;;;;;;;31.92;17.92;;;8.40;99.90;;;;;;4997505;28;20385;-63
2023/04/17 06:42:56;;;;;;;27.67;16.80;;;8.50;99.90;;;;;;4991751;28;20377;-64
2023/04/17 06:45:22;;;;;;;28.10;17.80;;;8.60;99.90;;;;;;4991930;28;20280;-63
2023/04/17 06:47:49;;;;;;;28.92;17.08;;;8.60;99.90;;;;;;4991706;28;20145;-64
2023/04/17 06:50:15;;;;;;;26.77;16.67;;;8.60;99.90;;;;;;5000167;28;20089;-63
2023/04/17 06:52:44;;;;;;;27.67;16.48;;;8.60;99.90;;;;;;4979847;28;20405;-64
2023/04/17 06:55:10;;;;;;;28.67;18.15;;;8.60;99.90;;;;;;4995119;28;20069;-63
2023/04/17 06:57:37;;;;;;;29.17;19.48;;;8.60;99.90;;;;;;4992865;28;20097;-63
2023/04/17 07:00:04;;;;;;;25.88;16.80;;;8.60;99.90;;;;;;4996798;28;20126;-64
2023/04/17 07:02:31;;;;;;;29.85;18.60;;;8.50;99.90;;;;;;4991671;28;20054;-63
2023/04/17 07:04:57;;;;;;;29.17;17.73;;;8.60;99.90;;;;;;4991576;28;20129;-64
2023/04/17 07:07:24;;;;;;;32.58;20.05;;;8.50;99.90;;;;;;4992420;28;20114;-63
2023/04/17 07:09:51;;;;;;;29.02;18.45;;;8.50;99.90;;;;;;4997318;28;20433;-64
2023/04/17 07:12:18;;;;;;;29.38;17.48;;;8.50;99.90;;;;;;4991779;28;20443;-63
2023/04/17 07:14:44;;;;;;;29.73;20.02;;;8.50;99.90;;;;;;4991411;28;20170;-64
2023/04/17 07:17:10;;;;;;;30.92;19.83;;;8.60;99.90;;;;;;4991814;28;20042;-63
2023/04/17 07:19:37;;;;;;;31.63;20.08;;;8.70;99.90;;;;;;4996300;28;20077;-63
2023/04/17 07:22:04;;;;;;;32.15;19.08;;;8.70;99.90;;;;;;5011440;28;20237;-65
2023/04/17 07:24:33;;;;;;;26.05;18.60;;;8.70;99.90;;;;;;4994094;28;20058;-63
2023/04/17 07:27:03;;;;;;;30.50;18.17;;;8.70;99.90;;;;;;4979131;28;20092;-63
2023/04/17 07:29:30;;;;;;;27.38;18.80;;;8.80;99.90;;;;;;4995233;28;20137;-63
2023/04/17 07:31:56;;;;;;;30.05;18.77;;;8.90;99.90;;;;;;5011122;28;20057;-64
2023/04/17 07:34:24;;;;;;;28.95;19.45;;;9.00;99.90;;;;;;5010648;28;20517;-64
2023/04/17 07:36:53;;;;;;;25.23;16.40;;;9.00;99.90;;;;;;5011882;28;20061;-63
2023/04/17 07:39:19;;;;;;;28.17;19.45;;;9.10;99.90;;;;;;5006924;28;20042;-64
2023/04/17 07:41:45;;;;;;;26.40;18.95;;;9.10;99.90;;;;;;4973540;28;20144;-65
2023/04/17 07:44:13;;;;;;;25.80;18.42;;;9.20;99.90;;;;;;4974029;28;20452;-63
2023/04/17 07:46:40;;;;;;;28.25;18.48;;;9.40;99.90;;;;;;4991134;28;20217;-64
2023/04/17 07:49:08;;;;;;;30.65;18.83;;;9.50;99.90;;;;;;4991984;28;20478;-64
2023/04/17 07:51:34;;;;;;;26.98;16.42;;;9.50;99.90;;;;;;4976843;28;20401;-65
2023/04/17 07:54:02;;;;;;;27.05;19.00;;;9.60;99.90;;;;;;4993074;28;20053;-63
2023/04/17 07:56:30;;;;;;;25.38;17.73;;;9.60;99.90;;;;;;5010562;28;20092;-65
2023/04/17 07:58:57;;;;;;;29.65;19.20;;;9.70;99.90;;;;;;5009831;28;20112;-64
2023/04/17 08:01:25;;;;;;;27.50;16.88;;;9.70;99.90;;;;;;5005575;28;20129;-63
2023/04/17 08:03:53;;;;;;;25.92;18.38;;;9.70;99.90;;;;;;4993354;28;20384;-63
2023/04/17 08:06:19;;;;;;;22.73;15.68;;;9.80;99.90;;;;;;5010472;28;20108;-63
2023/04/17 08:08:46;;;;;;;25.45;17.23;;;9.80;99.90;;;;;;5010382;28;20065;-63
2023/04/17 08:11:13;;;;;;;25.85;18.45;;;10.00;99.90;;;;;;4974612;28;20065;-64
2023/04/17 08:13:40;;;;;;;23.88;16.83;;;10.10;99.90;;;;;;4991055;28;20050;-64
2023/04/17 08:16:07;;;;;;;27.33;18.63;;;10.20;99.90;;;;;;4969985;28;20059;-65
2023/04/17 08:18:36;;;;;;;27.42;18.20;;;10.40;99.90;;;;;;4971300;28;20205;-64
2023/04/17 08:21:03;;;;;;;27.55;18.08;;;10.40;99.90;;;;;;4988082;28;20082;-63
2023/04/17 08:23:31;;;;;;;24.35;16.70;;;10.50;99.90;;;;;;4990988;28;20117;-63
2023/04/17 08:25:57;;;;;;;27.90;17.55;;;10.60;99.90;;;;;;4991050;28;20141;-62
2023/04/17 08:28:24;;;;;;;23.75;16.05;;;10.70;99.90;;;;;;4990809;28;20050;-63
2023/04/17 08:30:50;;;;;;;26.42;16.65;;;10.70;99.90;;;;;;4975736;28;20061;-63
2023/04/17 08:33:17;;;;;;;28.17;17.75;;;10.90;99.90;;;;;;4971805;28;20086;-63
2023/04/17 08:35:44;;;;;;;27.55;16.90;;;10.90;99.90;;;;;;4987816;28;20046;-62
2023/04/17 08:38:12;;;;;;;29.58;18.67;;;11.00;99.90;;;;;;4972943;28;20070;-62
2023/04/17 08:40:45;;;;;;;27.90;18.52;;;11.30;99.90;;;;;;4977018;28;20053;-62
2023/04/17 08:43:17;;;;;;;26.15;17.88;;;11.30;99.90;;;;;;4971460;28;20093;-62
2023/04/17 08:45:52;;;;;;;28.15;17.77;;;11.40;99.90;;;;;;4971443;28;20042;-62
2023/04/17 08:48:19;;;;;;;24.52;16.48;;;11.60;99.90;;;;;;4971123;28;20140;-64
2023/04/17 08:50:47;;;;;;;25.20;18.90;;;11.60;99.90;;;;;;4985408;28;20065;-63
2023/04/17 08:53:15;;;;;;;24.27;17.98;;;11.60;99.90;;;;;;4958152;28;20430;-62
2023/04/17 08:55:43;;;;;;;24.75;17.13;;;11.80;99.90;;;;;;4994289;28;20065;-64
2023/04/17 08:58:09;;;;;;;25.33;18.35;;;12.10;99.90;;;;;;4993778;28;20042;-62
2023/04/17 09:00:38;;;;;;;24.15;16.38;;;12.30;99.90;;;;;;4976759;28;20093;-63
2023/04/17 09:03:07;;;;;;;22.77;17.73;;;12.40;99.90;;;;;;4994232;28;20089;-62
2023/04/17 09:05:35;;;;;;;24.90;17.40;;;12.10;99.90;;;;;;4994044;28;20136;-62
2023/04/17 09:08:14;;;;;;;22.20;15.57;;;12.00;99.90;;;;;;4992692;28;20070;-62
2023/04/17 09:10:46;;;;;;;25.77;17.15;;;12.10;99.90;;;;;;4970033;28;20051;-63
2023/04/17 09:13:13;;;;;;;;;;;12.10;99.90;;;;;;4954514;29;20388;-62
2023/04/17 09:15:45;;;;;;;22.35;16.30;;;12.10;99.90;;;;;;4963133;28;20301;-63
2023/04/17 09:18:26;;;;;;;25.17;16.95;;;12.10;99.90;;;;;;4973925;28;20050;-63
2023/04/17 09:20:53;;;;;;;24.60;15.88;;;12.10;99.90;;;;;;5004743;28;20400;-62
2023/04/17 09:23:21;;;;;;;24.85;17.40;;;12.20;99.90;;;;;;5013220;28;20095;-64
2023/04/17 09:26:08;;;;;;;24.33;17.05;;;12.40;99.90;;;;;;4995919;28;20096;-63
2023/04/17 09:28:38;;;;;;;25.50;18.48;;;12.40;99.90;;;;;;5013104;28;20049;-63
2023/04/17 09:31:26;;;;;;;25.00;17.05;;;12.40;99.90;;;;;;4978848;28;20069;-64
2023/04/17 09:34:00;;;;;;;25.60;17.05;;;12.50;99.90;;;;;;4994060;28;20419;-64
2023/04/17 09:36:29;;;;;;;25.65;16.95;;;12.70;99.90;;;;;;4976133;28;20105;-63
2023/04/17 09:38:58;;;;;;;24.73;17.48;;;12.80;99.90;;;;;;4993166;28;20111;-64
2023/04/17 09:41:28;;;;;;;24.55;17.20;;;12.80;99.90;;;;;;5012520;28;20046;-63
2023/04/17 09:43:59;;;;;;;27.13;19.92;;;13.00;99.90;;;;;;4995590;28;20053;-63
2023/04/17 09:46:44;;;;;;;24.13;16.92;;;12.90;99.90;;;;;;4995625;28;20085;-64
2023/04/17 09:49:38;;;;;;;26.63;18.23;;;12.90;99.90;;;;;;5011006;28;20133;-63
2023/04/17 09:52:05;;;;;;;24.30;17.40;;;13.00;99.90;;;;;;4993595;28;20204;-63
2023/04/17 09:54:36;;;;;;;29.10;20.92;;;13.10;99.90;;;;;;4959776;28;20054;-62
2023/04/17 09:57:07;;;;;;;25.95;17.65;;;13.20;99.90;;;;;;4993368;28;20323;-62
2023/04/17 09:59:37;;;;;;;24.45;17.63;;;13.30;99.90;;;;;;4994105;28;20048;-62
2023/04/17 10:02:08;;;;;;;25.48;18.08;;;13.40;99.90;;;;;;4984567;28;20066;-63
2023/04/17 10:04:42;;;;;;;26.35;18.63;;;13.40;99.90;;;;;;4994455;28;20105;-63
2023/04/17 10:07:09;;;;;;;25.58;16.92;;;13.50;99.90;;;;;;4995067;28;20323;-63
2023/04/17 10:09:36;;;;;;;28.95;18.92;;;13.70;99.90;;;;;;5007713;28;20153;-64
2023/04/17 10:12:04;;;;;;;25.90;18.52;;;13.70;99.90;;;;;;4993340;28;20166;-63
2023/04/17 10:14:37;;;;;;;26.08;19.80;;;13.90;99.90;;;;;;4992983;28;20050;-64
2023/04/17 10:17:23;;;;;;;26.98;20.13;;;14.00;99.90;;;;;;4992436;28;20061;-62
2023/04/17 10:19:49;;;;;;;27.10;20.30;;;14.00;99.90;;;;;;4964359;28;20041;-63
2023/04/17 10:22:18;;;;;;;26.58;19.10;;;14.00;99.90;;;;;;5012368;28;20105;-63
2023/04/17 10:25:11;;;;;;;28.95;20.45;;;14.20;99.90;;;;;;5012307;28;20142;-63
2023/04/17 10:27:40;;;;;;;27.42;19.45;;;14.30;99.90;;;;;;5011772;28;20089;-64
2023/04/17 10:30:11;;;;;;;30.27;21.25;;;14.40;99.90;;;;;;4986465;28;20081;-63
2023/04/17 10:32:40;;;;;;;28.50;21.33;;;14.50;99.90;;;;;;4992738;28;20057;-63
2023/04/17 10:35:15;;;;;;;26.52;21.05;;;14.50;99.90;;;;;;4992302;28;20050;-63
2023/04/17 10:37:50;;;;;;;27.95;22.45;;;14.40;99.90;;;;;;4992141;28;20090;-60
2023/04/17 10:40:28;;;;;;;26.02;20.38;;;14.50;99.90;;;;;;4984536;28;20045;-61
2023/04/17 10:43:12;;;;;;;27.48;22.33;;;14.70;99.90;;;;;;4995025;28;20072;-65
2023/04/17 10:45:57;;;;;;;23.90;19.80;;;14.80;99.90;;;;;;5012121;28;20045;-63
2023/04/17 10:48:32;;;;;;;27.38;21.42;;;15.00;99.90;;;;;;5011932;28;20081;-61
2023/04/17 10:50:59;;;;;;;25.80;19.85;;;15.10;99.90;;;;;;4996463;28;20050;-61
2023/04/17 10:53:42;;;;;;;26.13;20.38;;;15.20;99.90;;;;;;4992133;28;20051;-63
2023/04/17 10:56:18;;;;;;;26.38;19.98;;;15.40;99.90;;;;;;4992048;28;20050;-61
2023/04/17 10:59:04;;;;;;;26.33;22.00;;;15.70;99.90;;;;;;4991813;28;20051;-61
2023/04/17 11:01:41;;;;;;;24.58;20.45;;;15.50;99.90;;;;;;4992820;28;20097;-61
2023/04/17 11:04:18;;;;;;;24.02;20.42;;;15.30;99.90;;;;;;4991916;28;20061;-64
2023/04/17 11:06:44;;;;;;;24.52;19.58;;;15.40;99.90;;;;;;4991743;28;20082;-62
2023/04/17 11:09:11;;;;;;;25.20;21.30;;;15.50;99.90;;;;;;4991657;28;20365;-63
2023/04/17 11:11:38;;;;;;;20.77;18.52;;;15.70;99.90;;;;;;5011461;28;20328;-63
2023/04/17 11:14:09;;;;;;;22.30;19.60;;;15.60;99.90;;;;;;5011521;28;20054;-62
2023/04/17 11:16:40;;;;;;;23.45;20.95;;;15.60;99.90;;;;;;4989544;28;20201;-63
2023/04/17 11:19:08;;;;;;;23.45;20.95;;;15.60;99.90;;;;;;4990636;28;20057;-63
2023/04/17 11:21:40;;;;;;;21.00;18.80;;;15.60;99.90;;;;;;4991748;28;20184;-64
2023/04/17 11:24:06;;;;;;;23.63;21.13;;;15.70;99.90;;;;;;4991926;28;20046;-62
2023/04/17 11:26:43;;;;;;;22.20;19.92;;;15.90;99.90;;;;;;4991801;28;20125;-62
2023/04/17 11:29:18;;;;;;;23.85;21.55;;;16.10;99.90;;;;;;4973368;28;20443;-63
2023/04/17 11:31:45;;;;;;;23.80;21.30;;;16.20;99.90;;;;;;4972300;28;20097;-62
2023/04/17 11:34:12;;;;;;;22.70;19.60;;;16.00;99.90;;;;;;4972047;28;20063;-64
2023/04/17 11:36:38;;;;;;;20.48;17.92;;;15.90;99.90;;;;;;4972238;28;20109;-64
2023/04/17 11:39:07;;;;;;;18.75;15.77;;;15.80;99.90;;;;;;4971914;28;20465;-63
2023/04/17 11:41:41;;;;;;;20.95;17.85;;;15.70;99.90;;;;;;4991213;28;20434;-62
2023/04/17 11:44:09;;;;;;;20.80;16.85;;;15.50;99.90;;;;;;4991825;28;20077;-64
2023/04/17 11:46:35;;;;;;;18.00;16.08;;;15.40;99.90;;;;;;4991773;28;20042;-63
2023/04/17 11:49:06;;;;;;;18.10;15.73;;;15.40;99.90;;;;;;4990989;28;20046;-63
2023/04/17 11:51:34;;;;;;;17.98;15.93;;;15.50;99.90;;;;;;4991393;28;20145;-62
2023/04/17 11:54:00;;;;;;;15.63;13.52;;;15.70;99.90;;;;;;4973909;28;20443;-62
2023/04/17 11:56:29;;;;;;;17.92;16.08;;;16.10;99.90;;;;;;4991017;28;20095;-61
2023/04/17 11:59:00;;;;;;;15.13;13.57;;;16.50;99.90;;;;;;4990897;28;20092;-61
2023/04/17 12:01:27;;;;;;;17.10;13.20;;;16.40;99.90;;;;;;4991091;28;20135;-62
2023/04/17 12:03:55;;;;;;;14.40;12.52;;;16.30;99.90;;;;;;4974451;28;20419;-62
2023/04/17 12:06:23;;;;;;;15.63;12.30;;;16.20;99.90;;;;;;4991326;28;20141;-61
2023/04/17 12:08:54;;;;;;;15.13;12.80;;;16.20;99.90;;;;;;4990824;28;20462;-63
2023/04/17 12:11:24;;;;;;;15.55;12.85;;;16.20;99.90;;;;;;4988035;28;20050;-63
2023/04/17 12:13:51;;;;;;;13.73;11.90;;;16.10;99.90;;;;;;4991318;28;20104;-63
2023/04/17 12:16:18;;;;;;;14.98;12.10;;;16.00;99.90;;;;;;4990130;28;20066;-62
2023/04/17 12:18:45;;;;;;;17.90;11.75;;;16.10;99.90;;;;;;4990559;28;20463;-62
2023/04/17 12:21:12;;;;;;;12.65;10.18;;;16.20;99.90;;;;;;4990817;28;20172;-62
2023/04/17 12:23:39;;;;;;;14.93;10.35;;;16.40;99.90;;;;;;4991194;28;20152;-62
2023/04/17 12:26:06;;;;;;;16.42;10.38;;;16.60;99.90;;;;;;4991242;28;20081;-61
2023/04/17 12:28:34;;;;;;;13.35;9.70;;;16.70;99.90;;;;;;4992216;28;20373;-62
2023/04/17 12:31:01;;;;;;;13.30;10.48;;;16.60;99.90;;;;;;4989017;28;20069;-62
2023/04/17 12:33:30;;;;;;;17.65;11.13;;;16.60;99.90;;;;;;4994947;28;20069;-63
2023/04/17 12:35:59;;;;;;;13.05;10.68;;;16.70;99.90;;;;;;4993505;28;20050;-63
2023/04/17 12:38:25;;;;;;;13.35;11.15;;;16.80;99.90;;;;;;4993213;28;20050;-63